createdAt,value
2023-03-23T15:59:58.009Z,0.70
2023-03-23T16:02:25.723Z,0.50
2023-03-23T16:04:55.714Z,0.98
2023-03-23T16:07:24.429Z,0.43
2023-03-23T16:09:51.708Z,0.43
2023-03-23T16:12:18.850Z,0.40
2023-03-23T16:14:47.370Z,0.40
2023-03-23T16:17:20.647Z,0.40
2023-03-23T16:19:50.324Z,0.60
2023-03-23T16:22:18.633Z,1.25
2023-03-23T16:24:47.197Z,0.70
2023-03-23T16:27:15.189Z,0.77
2023-03-23T16:30:02.222Z,0.90
2023-03-23T16:32:30.095Z,0.60
2023-03-23T16:34:59.542Z,0.70
2023-03-23T16:37:26.835Z,0.60
2023-03-23T16:39:57.995Z,0.63
2023-03-23T16:42:25.035Z,0.55
2023-03-23T16:44:55.201Z,0.90
2023-03-23T16:47:25.476Z,0.60
2023-03-23T16:49:54.061Z,0.40
2023-03-23T16:52:21.709Z,0.60
2023-03-23T16:54:48.805Z,0.40
2023-03-23T16:57:16.666Z,0.52
2023-03-23T16:59:44.199Z,1.17
2023-03-23T17:02:12.620Z,0.70
2023-03-23T17:04:46.512Z,0.40
2023-03-23T17:07:20.472Z,0.40
2023-03-23T17:09:50.135Z,0.90
2023-03-23T17:12:19.494Z,0.80
2023-03-23T17:14:46.647Z,0.50
2023-03-23T17:17:13.789Z,0.50
2023-03-23T17:19:41.010Z,0.55
2023-03-23T17:22:08.148Z,0.73
2023-03-23T17:24:37.780Z,0.47
2023-03-23T17:27:04.950Z,0.50
2023-03-23T17:29:32.353Z,0.60
2023-03-23T17:31:59.620Z,0.50
2023-03-23T17:34:29.369Z,0.30
2023-03-23T17:36:56.823Z,0.60
2023-03-23T17:39:32.089Z,0.50
2023-03-23T17:42:10.875Z,0.68
2023-03-23T17:44:38.203Z,0.98
2023-03-23T17:47:05.939Z,0.63
2023-03-23T17:49:33.303Z,1.55
2023-03-23T17:52:00.736Z,0.77
2023-03-23T17:54:29.637Z,1.20
2023-03-23T17:56:59.035Z,0.73
2023-03-23T17:59:26.263Z,0.90
2023-03-23T18:01:53.829Z,1.00
2023-03-23T18:04:21.261Z,0.90
2023-03-23T18:06:51.365Z,1.00
2023-03-23T18:09:18.580Z,0.95
2023-03-23T18:11:45.754Z,0.50
2023-03-23T18:14:12.904Z,0.50
2023-03-23T18:16:40.072Z,1.25
2023-03-23T18:19:14.047Z,0.70
2023-03-23T18:21:45.674Z,0.50
2023-03-23T18:24:13.684Z,0.82
2023-03-23T18:26:41.337Z,0.57
2023-03-23T18:29:11.705Z,0.30
2023-03-23T18:31:41.392Z,0.30
2023-03-23T18:34:08.806Z,0.50
2023-03-23T18:36:36.561Z,0.40
2023-03-23T18:39:16.035Z,0.40
2023-03-23T18:41:43.282Z,0.70
2023-03-23T18:44:10.315Z,0.60
2023-03-23T18:46:37.804Z,0.70
2023-03-23T18:49:12.195Z,0.70
2023-03-23T18:51:44.665Z,0.60
2023-03-23T18:54:11.939Z,0.50
2023-03-23T18:56:39.258Z,0.43
2023-03-23T18:59:06.818Z,0.50
2023-03-23T19:01:36.441Z,0.40
2023-03-23T19:04:06.632Z,0.70
2023-03-23T19:06:35.213Z,0.60
2023-03-23T19:09:02.489Z,0.70
2023-03-23T19:11:29.611Z,0.50
2023-03-23T19:14:02.957Z,0.60
2023-03-23T19:16:38.068Z,0.80
2023-03-23T19:19:08.319Z,0.70
2023-03-23T19:21:37.590Z,0.60
2023-03-23T19:24:05.430Z,0.80
2023-03-23T19:26:41.898Z,0.73
2023-03-23T19:31:44.688Z,1.10
2023-03-23T19:34:13.698Z,0.90
2023-03-23T19:36:40.829Z,1.10
2023-03-23T19:39:11.327Z,1.23
2023-03-23T19:41:57.858Z,0.90
2023-03-23T19:45:01.604Z,0.80
2023-03-23T19:47:31.573Z,1.00
2023-03-23T19:50:01.338Z,0.70
2023-03-23T19:52:29.000Z,0.80
2023-03-23T19:55:34.858Z,0.70
2023-03-23T19:58:04.883Z,0.70
2023-03-23T20:00:36.136Z,0.40
2023-03-23T20:03:03.854Z,0.50
2023-03-23T20:05:31.044Z,0.43
2023-03-23T20:07:58.930Z,0.50
2023-03-23T20:10:26.135Z,0.40
2023-03-23T20:12:53.408Z,0.63
2023-03-23T20:15:20.641Z,0.73
2023-03-23T20:17:48.385Z,0.50
2023-03-23T20:20:15.709Z,0.50
2023-03-23T20:22:45.632Z,0.60
2023-03-23T20:25:13.312Z,0.60
2023-03-23T20:27:40.994Z,0.57
2023-03-23T20:30:08.629Z,0.50
2023-03-23T20:32:37.410Z,0.70
2023-03-23T20:35:09.280Z,0.80
2023-03-23T20:37:40.508Z,0.95
2023-03-23T20:40:15.099Z,0.90
2023-03-23T20:42:43.642Z,0.85
2023-03-23T20:45:13.259Z,0.80
2023-03-23T20:47:40.883Z,0.98
2023-03-23T20:50:10.878Z,1.27
2023-03-23T20:52:40.189Z,1.08
2023-03-23T20:55:08.667Z,1.40
2023-03-23T20:57:38.143Z,1.65
2023-03-23T21:00:33.100Z,1.50
2023-03-23T21:03:16.248Z,1.27
2023-03-23T21:06:02.196Z,1.10
2023-03-23T21:08:30.555Z,1.00
2023-03-23T21:10:59.088Z,1.58
2023-03-23T21:13:27.194Z,0.95
2023-03-23T21:16:07.669Z,1.10
2023-03-23T21:18:35.232Z,0.85
2023-03-23T21:21:07.750Z,1.15
2023-03-23T21:23:36.244Z,0.90
2023-03-23T21:26:06.777Z,1.10
2023-03-23T21:28:34.167Z,0.95
2023-03-23T21:31:02.444Z,1.52
2023-03-23T21:33:29.572Z,0.73
2023-03-23T21:36:04.586Z,1.40
2023-03-23T21:38:32.426Z,0.80
2023-03-23T21:41:14.090Z,1.30
2023-03-23T21:43:46.018Z,1.23
2023-03-23T21:46:18.167Z,1.00
2023-03-23T21:51:28.934Z,0.90
2023-03-23T21:53:58.014Z,0.90
2023-03-23T21:56:29.812Z,0.90
2023-03-23T21:58:59.866Z,1.10
2023-03-23T22:01:39.807Z,0.70
2023-03-23T22:04:24.330Z,1.20
2023-03-23T22:06:51.623Z,1.45
2023-03-23T22:09:18.997Z,0.90
2023-03-23T22:11:49.295Z,1.38
2023-03-23T22:14:19.786Z,1.00
2023-03-23T22:22:02.648Z,1.15
2023-03-23T22:24:30.743Z,1.25
2023-03-23T22:26:58.029Z,1.13
2023-03-23T22:29:25.370Z,0.80
2023-03-23T22:31:52.502Z,0.80
2023-03-23T22:34:19.800Z,1.45
2023-03-23T22:36:46.795Z,0.93
2023-03-23T22:39:14.041Z,1.35
2023-03-23T22:41:47.707Z,1.52
2023-03-23T22:44:42.872Z,1.50
2023-03-23T22:47:16.038Z,1.80
2023-03-23T22:49:43.485Z,1.20
2023-03-23T22:52:10.718Z,1.30
2023-03-23T22:54:38.144Z,1.33
2023-03-23T22:57:05.474Z,1.08
2023-03-23T22:59:32.905Z,1.40
2023-03-23T23:02:00.026Z,1.00
2023-03-23T23:04:29.444Z,1.17
2023-03-23T23:07:06.716Z,0.90
2023-03-23T23:09:39.627Z,1.10
2023-03-23T23:12:07.157Z,1.40
2023-03-23T23:14:34.406Z,1.00
2023-03-23T23:17:01.428Z,1.48
2023-03-23T23:19:32.506Z,1.17
2023-03-23T23:22:09.332Z,1.10
2023-03-23T23:24:39.806Z,1.17
2023-03-23T23:27:06.740Z,1.25
2023-03-23T23:29:33.867Z,0.98
2023-03-23T23:32:02.285Z,1.15
2023-03-23T23:34:29.239Z,1.23
2023-03-23T23:36:59.519Z,1.20
2023-03-23T23:39:27.775Z,1.00
2023-03-23T23:41:55.653Z,0.88
2023-03-23T23:44:22.898Z,1.20
2023-03-23T23:46:49.867Z,1.20
2023-03-23T23:49:16.864Z,0.98
2023-03-23T23:51:44.826Z,0.85
2023-03-23T23:54:14.635Z,0.95
2023-03-23T23:56:41.803Z,0.90
2023-03-23T23:59:08.918Z,0.90
